createdAt,value
2022-09-05T00:02:25.101Z,2.72
2022-09-05T00:05:05.233Z,3.00
2022-09-05T00:07:59.462Z,2.40
2022-09-05T00:10:53.466Z,2.60
2022-09-05T00:13:37.601Z,3.20
2022-09-05T00:16:34.474Z,2.60
2022-09-05T00:24:19.829Z,3.45
2022-09-05T00:24:26.774Z,2.78
2022-09-05T00:25:42.089Z,2.80
2022-09-05T00:28:26.905Z,3.65
2022-09-05T00:31:54.043Z,2.72
2022-09-05T00:34:22.549Z,2.63
2022-09-05T00:39:29.439Z,2.38
2022-09-05T00:42:03.310Z,3.00
2022-09-05T00:44:38.628Z,3.28
2022-09-05T00:47:14.982Z,2.90
2022-09-05T00:49:54.593Z,2.65
2022-09-05T00:52:32.512Z,3.42
2022-09-05T00:55:16.964Z,3.25
2022-09-05T00:58:03.617Z,2.90
2022-09-05T01:00:47.457Z,2.95
2022-09-05T01:03:39.252Z,2.65
2022-09-05T01:06:36.846Z,3.03
2022-09-05T01:09:31.585Z,3.30
2022-09-05T01:12:14.938Z,3.15
2022-09-05T01:15:10.500Z,3.47
2022-09-05T01:17:52.187Z,3.17
2022-09-05T01:20:43.487Z,3.00
2022-09-05T01:23:51.487Z,3.40
2022-09-05T01:26:43.744Z,3.33
2022-09-05T01:29:27.710Z,3.25
2022-09-05T01:32:17.163Z,3.65
2022-09-05T01:35:21.288Z,3.22
2022-09-05T01:37:58.942Z,3.33
2022-09-05T01:40:39.230Z,3.28
2022-09-05T01:43:26.509Z,3.33
2022-09-05T01:46:11.666Z,3.28
2022-09-05T01:48:53.002Z,3.35
2022-09-05T01:51:32.454Z,3.60
2022-09-05T01:54:24.314Z,3.58
2022-09-05T01:57:10.425Z,4.00
2022-09-05T01:59:48.921Z,3.88
2022-09-05T02:02:30.415Z,3.45
2022-09-05T02:05:32.658Z,3.40
2022-09-05T02:08:32.860Z,3.28
2022-09-05T02:11:09.139Z,3.20
2022-09-05T02:14:03.280Z,3.22
2022-09-05T02:16:45.859Z,3.05
2022-09-05T02:19:25.479Z,3.78
2022-09-05T02:22:04.167Z,3.40
2022-09-05T02:24:40.402Z,3.33
2022-09-05T02:27:30.222Z,3.28
2022-09-05T02:30:17.385Z,3.10
2022-09-05T02:32:58.437Z,3.40
2022-09-05T02:35:41.265Z,3.17
2022-09-05T02:40:18.997Z,2.97
2022-09-05T02:45:11.899Z,3.15
2022-09-05T02:45:21.086Z,3.47
2022-09-05T02:47:14.407Z,3.50
2022-09-05T02:53:19.676Z,3.60
2022-09-05T02:57:34.044Z,3.08
2022-09-05T02:57:41.588Z,3.40
2022-09-05T02:59:10.116Z,3.47
2022-09-05T03:02:01.326Z,2.88
2022-09-05T03:04:46.279Z,3.10
2022-09-05T03:07:37.477Z,3.92
2022-09-05T03:10:53.893Z,3.28
2022-09-05T03:13:58.463Z,3.50
2022-09-05T03:17:13.673Z,3.53
2022-09-05T03:20:16.682Z,3.53
2022-09-05T03:23:05.000Z,3.38
2022-09-05T03:26:14.546Z,3.42
2022-09-05T03:29:30.893Z,3.47
2022-09-05T03:32:49.219Z,3.50
2022-09-05T03:35:49.230Z,3.95
2022-09-05T03:38:47.093Z,3.72
2022-09-05T03:41:40.721Z,4.82
2022-09-05T03:44:27.937Z,3.88
2022-09-05T03:47:24.418Z,4.30
2022-09-05T03:55:57.268Z,3.65
2022-09-05T03:57:20.050Z,3.47
2022-09-05T03:57:28.499Z,3.97
2022-09-05T04:00:07.469Z,3.60
2022-09-05T04:08:08.220Z,3.55
2022-09-05T04:08:18.259Z,4.47
2022-09-05T04:08:43.748Z,3.90
2022-09-05T04:11:20.072Z,3.97
2022-09-05T04:13:55.355Z,3.90
2022-09-05T04:16:31.239Z,4.35
2022-09-05T04:19:16.950Z,4.53
2022-09-05T04:21:54.584Z,4.07
2022-09-05T04:24:33.208Z,4.32
2022-09-05T04:27:18.994Z,4.05
2022-09-05T04:30:06.569Z,4.47
2022-09-05T04:33:01.018Z,4.65
2022-09-05T04:35:43.383Z,5.20
2022-09-05T04:38:17.229Z,5.30
2022-09-05T04:40:52.831Z,5.40
2022-09-05T04:43:31.741Z,4.60
2022-09-05T04:46:13.871Z,5.53
2022-09-05T04:48:54.939Z,5.53
2022-09-05T04:52:13.336Z,5.65
2022-09-05T04:54:53.575Z,5.88
2022-09-05T04:57:28.534Z,5.93
2022-09-05T05:02:15.094Z,5.97
2022-09-05T05:06:13.897Z,6.17
2022-09-05T05:06:29.155Z,6.20
2022-09-05T05:09:01.943Z,5.90
2022-09-05T05:17:25.324Z,5.97
2022-09-05T05:18:07.468Z,6.38
2022-09-05T05:18:12.954Z,5.10
2022-09-05T05:20:43.762Z,5.93
2022-09-05T05:23:18.549Z,5.90
2022-09-05T05:25:58.913Z,5.75
2022-09-05T05:28:34.865Z,5.20
2022-09-05T05:31:15.821Z,6.32
2022-09-05T05:33:50.689Z,6.10
2022-09-05T05:36:26.984Z,6.10
2022-09-05T05:39:04.346Z,6.00
2022-09-05T05:41:44.759Z,6.28
2022-09-05T05:44:18.625Z,6.43
2022-09-05T05:46:59.362Z,6.63
2022-09-05T05:49:49.550Z,6.55
2022-09-05T05:52:37.971Z,6.63
2022-09-05T05:55:52.158Z,6.88
2022-09-05T05:58:54.641Z,6.60
2022-09-05T06:02:07.384Z,6.43
2022-09-05T06:05:09.371Z,6.82
2022-09-05T06:09:38.056Z,6.53
2022-09-05T06:14:52.657Z,7.05
2022-09-05T06:15:03.644Z,6.75
2022-09-05T06:18:05.006Z,6.25
2022-09-05T06:22:07.760Z,6.97
2022-09-05T06:24:32.262Z,7.10
2022-09-05T06:27:29.650Z,7.07
2022-09-05T06:30:09.239Z,7.07
2022-09-05T06:32:58.775Z,7.53
2022-09-05T06:35:49.179Z,7.65
2022-09-05T06:38:46.909Z,7.97
2022-09-05T06:41:30.917Z,7.40
2022-09-05T06:44:32.002Z,7.95
2022-09-05T06:47:22.761Z,7.63
2022-09-05T06:53:31.263Z,7.00
2022-09-05T06:56:26.091Z,7.93
2022-09-05T06:59:51.330Z,8.43
2022-09-05T07:02:59.415Z,8.32
2022-09-05T07:05:44.428Z,7.72
2022-09-05T07:08:35.947Z,8.60
2022-09-05T07:11:16.792Z,7.85
2022-09-05T07:14:03.338Z,7.72
2022-09-05T07:16:47.191Z,7.80
2022-09-05T07:19:34.098Z,7.60
2022-09-05T07:22:48.144Z,8.23
2022-09-05T07:25:21.590Z,7.72
2022-09-05T07:28:28.583Z,6.63
2022-09-05T07:30:53.278Z,6.80
2022-09-05T07:33:29.735Z,7.70
2022-09-05T07:36:09.465Z,8.00
2022-09-05T07:38:54.982Z,8.65
2022-09-05T07:41:35.946Z,8.30
2022-09-05T07:44:12.617Z,8.35
2022-09-05T07:46:45.117Z,8.55
2022-09-05T07:49:20.873Z,7.70
2022-09-05T07:57:01.707Z,7.10
2022-09-05T07:57:06.158Z,7.93
2022-09-05T07:57:52.082Z,7.18
2022-09-05T08:00:26.798Z,6.32
2022-09-05T08:03:02.917Z,6.65
2022-09-05T08:05:42.999Z,5.75
2022-09-05T08:08:20.054Z,5.82
2022-09-05T08:11:24.204Z,5.65
2022-09-05T08:14:11.771Z,5.15
2022-09-05T08:16:47.737Z,5.13
2022-09-05T08:19:51.233Z,4.93
2022-09-05T08:22:25.592Z,3.75
2022-09-05T08:25:06.788Z,4.05
2022-09-05T08:27:52.202Z,4.25
2022-09-05T08:30:26.182Z,4.30
2022-09-05T08:33:11.236Z,4.60
2022-09-05T08:35:46.375Z,4.22
2022-09-05T08:38:19.196Z,3.83
2022-09-05T08:41:02.405Z,4.30
2022-09-05T08:46:06.193Z,3.85
2022-09-05T08:46:39.337Z,3.40
2022-09-05T08:49:51.706Z,2.95
2022-09-05T08:52:36.637Z,2.37
2022-09-05T08:55:22.268Z,2.65
2022-09-05T08:58:29.581Z,2.10
2022-09-05T09:01:09.130Z,2.72
2022-09-05T09:04:00.033Z,1.77
2022-09-05T09:07:26.227Z,2.15
2022-09-05T09:09:56.018Z,1.70
2022-09-05T09:13:06.417Z,1.85
2022-09-05T09:15:43.830Z,1.90
2022-09-05T09:18:18.189Z,1.90
2022-09-05T09:20:55.975Z,2.08
2022-09-05T09:23:49.845Z,1.75
2022-09-05T09:26:28.213Z,1.37
2022-09-05T09:29:04.257Z,1.58
2022-09-05T09:32:03.756Z,1.75
2022-09-05T09:34:47.105Z,1.70
2022-09-05T09:37:51.586Z,1.85
2022-09-05T09:40:41.556Z,2.05
2022-09-05T09:43:27.837Z,2.20
2022-09-05T09:46:21.310Z,2.03
2022-09-05T09:49:27.899Z,2.30
2022-09-05T09:52:37.352Z,1.48
2022-09-05T09:55:43.134Z,1.73
2022-09-05T09:58:29.186Z,2.00
2022-09-05T10:01:34.812Z,1.73
2022-09-05T10:10:35.766Z,1.98
2022-09-05T10:10:49.032Z,1.80
2022-09-05T10:14:50.791Z,2.25
2022-09-05T10:17:53.337Z,2.25
2022-09-05T10:21:15.189Z,1.88
2022-09-05T10:24:18.297Z,2.42
2022-09-05T10:27:09.007Z,1.65
2022-09-05T10:30:06.538Z,1.60
2022-09-05T10:35:09.880Z,2.05
2022-09-05T10:35:45.873Z,1.80
2022-09-05T10:38:22.363Z,1.38
2022-09-05T10:41:20.356Z,1.70
2022-09-05T10:43:52.778Z,2.35
2022-09-05T10:46:50.170Z,2.30
2022-09-05T10:49:30.400Z,2.25
2022-09-05T10:52:18.933Z,1.58
2022-09-05T10:55:22.184Z,1.65
2022-09-05T10:58:02.241Z,1.80
2022-09-05T11:02:22.382Z,2.30
2022-09-05T11:03:50.484Z,1.90
2022-09-05T11:06:25.870Z,2.13
2022-09-05T11:09:16.224Z,3.15
2022-09-05T11:11:54.138Z,3.10
2022-09-05T11:14:38.880Z,2.60
2022-09-05T11:17:19.120Z,2.08
2022-09-05T11:19:59.659Z,1.50
2022-09-05T11:22:38.079Z,0.90
2022-09-05T11:25:39.623Z,1.00
2022-09-05T11:28:18.234Z,1.35
2022-09-05T11:30:56.757Z,1.13
2022-09-05T11:39:45.692Z,1.30
2022-09-05T11:39:54.837Z,0.98
2022-09-05T11:40:45.178Z,1.00
2022-09-05T11:44:25.054Z,1.00
2022-09-05T11:46:55.338Z,1.15
2022-09-05T11:50:17.560Z,1.40
2022-09-05T11:53:30.002Z,1.13
2022-09-05T11:56:38.028Z,1.20
2022-09-05T11:59:45.108Z,1.40
2022-09-05T12:02:41.544Z,1.10
2022-09-05T12:05:49.561Z,1.20
2022-09-05T12:08:36.710Z,1.10
2022-09-05T12:11:20.690Z,1.50
2022-09-05T12:17:06.490Z,1.48
2022-09-05T12:19:47.508Z,1.63
2022-09-05T12:22:30.769Z,1.60
2022-09-05T12:27:35.836Z,1.52
2022-09-05T12:29:26.463Z,1.50
2022-09-05T12:33:22.942Z,1.58
2022-09-05T12:36:07.543Z,1.40
2022-09-05T12:41:38.446Z,1.10
2022-09-05T12:41:41.113Z,1.55
2022-09-05T12:44:32.610Z,1.35
2022-09-05T12:46:34.067Z,1.13
2022-09-05T12:49:08.971Z,1.20
2022-09-05T12:51:47.658Z,1.17
2022-09-05T12:54:34.662Z,1.25
2022-09-05T13:02:43.922Z,1.73
2022-09-05T13:02:56.720Z,1.30
2022-09-05T13:03:28.481Z,1.38
2022-09-05T13:06:02.954Z,1.13
2022-09-05T13:08:59.649Z,1.25
2022-09-05T13:14:54.322Z,1.20
2022-09-05T13:15:03.003Z,1.33
2022-09-05T13:17:34.400Z,1.20
2022-09-05T13:20:22.633Z,1.25
2022-09-05T13:22:56.293Z,1.10
2022-09-05T13:25:30.968Z,1.17
2022-09-05T13:28:08.965Z,1.13
2022-09-05T13:34:36.485Z,1.15
2022-09-05T13:38:11.251Z,1.40
2022-09-05T13:38:11.853Z,0.80
2022-09-05T13:39:47.688Z,1.05
2022-09-05T13:42:24.330Z,1.30
2022-09-05T13:44:58.944Z,1.60
2022-09-05T13:48:02.991Z,1.10
2022-09-05T13:50:39.128Z,1.10
2022-09-05T13:53:23.744Z,1.00
2022-09-05T13:56:03.010Z,1.75
2022-09-05T13:58:43.219Z,1.25
2022-09-05T14:02:24.541Z,1.30
2022-09-05T14:05:21.320Z,1.17
2022-09-05T14:08:23.069Z,1.23
2022-09-05T14:11:10.014Z,1.15
2022-09-05T14:14:03.127Z,1.10
2022-09-05T14:16:53.796Z,1.23
2022-09-05T14:19:43.258Z,1.30
2022-09-05T14:22:34.193Z,1.50
2022-09-05T14:25:14.076Z,1.10
2022-09-05T14:27:48.301Z,1.30
2022-09-05T14:34:30.922Z,1.00
2022-09-05T14:37:43.961Z,1.27
2022-09-05T14:40:02.622Z,1.30
2022-09-05T14:43:26.661Z,1.30
2022-09-05T14:46:33.372Z,1.40
2022-09-05T14:49:29.313Z,1.75
2022-09-05T14:52:01.490Z,1.52
2022-09-05T15:02:39.817Z,1.60
2022-09-05T15:02:54.061Z,1.30
2022-09-05T15:03:23.598Z,1.50
2022-09-05T15:05:54.928Z,1.30
2022-09-05T15:10:54.567Z,1.35
2022-09-05T15:12:27.858Z,1.25
2022-09-05T15:14:16.768Z,1.35
2022-09-05T15:17:02.227Z,1.45
2022-09-05T15:20:06.521Z,1.70
2022-09-05T15:22:43.185Z,1.42
2022-09-05T15:25:21.430Z,1.45
2022-09-05T15:27:53.511Z,1.90
2022-09-05T15:30:35.853Z,1.77
2022-09-05T15:33:26.274Z,2.50
2022-09-05T15:35:58.674Z,2.35
2022-09-05T15:38:54.241Z,1.80
2022-09-05T15:41:28.516Z,1.83
2022-09-05T15:44:09.459Z,1.90
2022-09-05T15:47:01.802Z,2.35
2022-09-05T15:49:43.150Z,1.77
2022-09-05T15:52:34.892Z,1.67
2022-09-05T15:55:14.155Z,2.30
2022-09-05T15:57:51.264Z,1.52
2022-09-05T16:00:39.720Z,1.80
2022-09-05T16:05:32.040Z,1.50
2022-09-05T16:10:34.717Z,1.95
2022-09-05T16:10:39.697Z,1.67
2022-09-05T16:12:15.924Z,1.88
2022-09-05T16:15:45.256Z,1.90
2022-09-05T16:23:14.247Z,2.00
2022-09-05T16:23:33.601Z,2.10
2022-09-05T16:23:45.905Z,2.13
2022-09-05T16:26:24.954Z,1.80
2022-09-05T16:29:00.811Z,2.30
2022-09-05T16:31:41.300Z,2.38
2022-09-05T16:34:24.273Z,2.08
2022-09-05T16:37:08.315Z,2.35
2022-09-05T16:39:48.394Z,2.20
2022-09-05T16:42:37.430Z,1.70
2022-09-05T16:45:24.190Z,2.00
2022-09-05T16:48:05.852Z,1.58
2022-09-05T16:50:48.047Z,2.08
2022-09-05T16:53:32.679Z,2.38
2022-09-05T16:56:11.461Z,2.40
2022-09-05T16:58:45.200Z,2.10
2022-09-05T17:01:37.487Z,3.10
2022-09-05T17:04:17.865Z,2.47
2022-09-05T17:06:57.777Z,2.58
2022-09-05T17:09:30.282Z,2.55
2022-09-05T17:12:10.185Z,2.40
2022-09-05T17:14:45.942Z,2.83
2022-09-05T17:18:18.416Z,2.63
2022-09-05T17:20:17.176Z,2.72
2022-09-05T17:26:17.520Z,2.20
2022-09-05T17:29:23.802Z,2.28
2022-09-05T17:29:50.488Z,2.95
2022-09-05T17:32:08.215Z,2.83
2022-09-05T17:35:17.952Z,2.20
2022-09-05T17:38:15.713Z,2.65
2022-09-05T17:41:17.727Z,2.60
2022-09-05T17:43:59.968Z,2.60
2022-09-05T17:46:34.222Z,2.45
2022-09-05T17:49:18.610Z,2.50
2022-09-05T17:52:25.014Z,2.33
2022-09-05T17:54:58.234Z,2.92
2022-09-05T17:57:45.461Z,2.63
2022-09-05T18:03:03.700Z,2.83
2022-09-05T18:06:05.963Z,2.58
2022-09-05T18:08:53.351Z,2.30
2022-09-05T18:12:05.874Z,2.13
2022-09-05T18:18:39.857Z,2.10
2022-09-05T18:21:21.126Z,1.60
2022-09-05T18:24:04.275Z,2.28
2022-09-05T18:26:43.525Z,1.38
2022-09-05T18:29:57.441Z,1.73
2022-09-05T18:32:16.905Z,1.70
2022-09-05T18:35:10.144Z,1.38
2022-09-05T18:38:17.679Z,1.73
2022-09-05T18:41:18.645Z,1.67
2022-09-05T18:44:13.300Z,1.35
2022-09-05T18:46:53.193Z,1.52
2022-09-05T18:49:57.604Z,1.65
2022-09-05T18:52:24.140Z,1.23
2022-09-05T18:56:10.527Z,1.48
2022-09-05T18:57:59.017Z,1.58
2022-09-05T19:00:44.445Z,1.50
2022-09-05T19:03:24.947Z,1.20
2022-09-05T19:06:36.097Z,1.60
2022-09-05T19:08:57.419Z,1.35
2022-09-05T19:11:36.735Z,1.50
2022-09-05T19:14:28.707Z,1.58
2022-09-05T19:17:12.010Z,1.23
2022-09-05T19:20:33.350Z,1.73
2022-09-05T19:23:10.824Z,1.20
2022-09-05T19:25:46.087Z,1.67
2022-09-05T19:36:44.554Z,1.48
2022-09-05T19:36:53.517Z,1.25
2022-09-05T19:37:11.970Z,1.45
2022-09-05T19:37:30.099Z,1.45
2022-09-05T19:47:26.276Z,1.35
2022-09-05T19:47:36.961Z,1.25
2022-09-05T19:47:51.671Z,1.20
2022-09-05T19:48:39.014Z,1.05
2022-09-05T19:51:17.911Z,2.03
2022-09-05T19:54:03.710Z,1.10
2022-09-05T19:56:39.843Z,1.20
2022-09-05T19:59:22.775Z,1.35
2022-09-05T20:01:54.226Z,1.45
2022-09-05T20:04:31.144Z,1.30
2022-09-05T20:09:32.926Z,1.55
2022-09-05T20:12:05.693Z,1.92
2022-09-05T20:14:38.212Z,1.42
2022-09-05T20:17:25.038Z,1.88
2022-09-05T20:20:12.610Z,1.50
2022-09-05T20:22:49.575Z,1.33
2022-09-05T20:25:35.195Z,1.23
2022-09-05T20:28:11.405Z,1.20
2022-09-05T20:30:46.095Z,1.40
2022-09-05T20:33:23.942Z,1.60
2022-09-05T20:40:54.203Z,1.10
2022-09-05T20:43:22.293Z,2.95
2022-09-05T20:43:32.630Z,1.67
2022-09-05T20:44:43.423Z,1.83
2022-09-05T20:54:05.995Z,1.40
2022-09-05T20:54:06.746Z,1.10
2022-09-05T20:54:19.247Z,1.30
2022-09-05T20:56:08.834Z,1.08
2022-09-05T20:58:42.221Z,1.33
2022-09-05T21:01:21.291Z,1.30
2022-09-05T21:03:59.482Z,1.42
2022-09-05T21:06:34.133Z,1.50
2022-09-05T21:09:24.548Z,1.63
2022-09-05T21:11:59.019Z,1.20
2022-09-05T21:14:32.477Z,1.65
2022-09-05T21:17:15.159Z,1.40
2022-09-05T21:19:54.128Z,1.77
2022-09-05T21:22:31.552Z,1.40
2022-09-05T21:25:21.248Z,1.20
2022-09-05T21:28:00.604Z,1.85
2022-09-05T21:30:33.379Z,1.30
2022-09-05T21:33:11.437Z,1.40
2022-09-05T21:35:52.063Z,1.50
2022-09-05T21:38:32.254Z,1.30
2022-09-05T21:41:08.342Z,1.83
2022-09-05T21:47:42.996Z,1.50
2022-09-05T21:47:48.938Z,1.67
2022-09-05T21:49:25.731Z,1.30
2022-09-05T21:51:56.817Z,1.50
2022-09-05T21:59:14.176Z,1.60
2022-09-05T21:59:32.963Z,1.70
2022-09-05T22:02:53.602Z,1.70
2022-09-05T22:05:25.693Z,1.48
2022-09-05T22:07:56.638Z,1.70
2022-09-05T22:10:35.640Z,1.75
2022-09-05T22:13:21.585Z,1.92
2022-09-05T22:15:52.785Z,1.67
2022-09-05T22:18:24.619Z,1.73
2022-09-05T22:21:34.079Z,1.90
2022-09-05T22:23:51.283Z,1.83
2022-09-05T22:26:25.159Z,2.03
2022-09-05T22:29:03.485Z,1.80
2022-09-05T22:31:35.999Z,1.90
2022-09-05T22:34:07.359Z,1.83
2022-09-05T22:36:38.269Z,2.03
2022-09-05T22:39:10.478Z,1.63
2022-09-05T22:41:44.717Z,2.00
2022-09-05T22:44:18.909Z,1.67
2022-09-05T22:46:49.769Z,2.53
2022-09-05T22:49:20.592Z,2.83
2022-09-05T22:51:51.704Z,2.35
2022-09-05T22:54:24.170Z,2.70
2022-09-05T22:56:55.580Z,2.97
2022-09-05T22:59:29.419Z,2.70
2022-09-05T23:02:00.810Z,3.13
2022-09-05T23:04:31.813Z,2.90
2022-09-05T23:07:05.799Z,2.85
2022-09-05T23:09:38.617Z,3.33
2022-09-05T23:12:14.149Z,3.00
2022-09-05T23:14:48.006Z,2.67
2022-09-05T23:17:19.147Z,2.63
2022-09-05T23:19:50.025Z,2.75
2022-09-05T23:22:20.846Z,2.40
2022-09-05T23:24:52.150Z,2.20
2022-09-05T23:27:23.263Z,2.60
2022-09-05T23:29:57.060Z,2.60
2022-09-05T23:32:28.210Z,2.88
2022-09-05T23:34:59.356Z,2.45
2022-09-05T23:37:30.661Z,2.30
2022-09-05T23:40:02.060Z,2.75
2022-09-05T23:42:33.014Z,1.98
2022-09-05T23:45:07.134Z,2.38
2022-09-05T23:47:39.208Z,2.08
2022-09-05T23:50:12.152Z,2.10
2022-09-05T23:52:44.937Z,2.20
2022-09-05T23:55:18.513Z,2.75
2022-09-05T23:57:50.171Z,3.20
